sensor_id;sensor_type;location;lat;lon;timestamp;pressure;altitude;pressure_sealevel;temperature;humidity
63554;BME280;49699;48.072;7.800;2023-05-24T00:00:32;99624.75;;;13.95;63.81
63554;BME280;49699;48.072;7.800;2023-05-24T00:02:58;99623.28;;;13.90;63.81
63554;BME280;49699;48.072;7.800;2023-05-24T00:05:23;99626.94;;;13.88;63.85
63554;BME280;49699;48.072;7.800;2023-05-24T00:07:48;99630.59;;;13.85;64.00
63554;BME280;49699;48.072;7.800;2023-05-24T00:10:15;99627.44;;;13.80;64.04
63554;BME280;49699;48.072;7.800;2023-05-24T00:12:40;99629.38;;;13.78;64.25
63554;BME280;49699;48.072;7.800;2023-05-24T00:15:05;99629.47;;;13.77;64.20
63554;BME280;49699;48.072;7.800;2023-05-24T00:17:31;99633.75;;;13.78;64.14
63554;BME280;49699;48.072;7.800;2023-05-24T00:19:59;99625.28;;;13.74;64.08
63554;BME280;49699;48.072;7.800;2023-05-24T00:22:24;99635.84;;;13.73;64.10
63554;BME280;49699;48.072;7.800;2023-05-24T00:24:50;99632.59;;;13.69;64.23
63554;BME280;49699;48.072;7.800;2023-05-24T00:27:15;99635.59;;;13.63;64.34
63554;BME280;49699;48.072;7.800;2023-05-24T00:29:40;99638.31;;;13.62;64.35
63554;BME280;49699;48.072;7.800;2023-05-24T00:32:06;99637.38;;;13.63;64.20
63554;BME280;49699;48.072;7.800;2023-05-24T00:34:31;99627.16;;;13.60;64.18
63554;BME280;49699;48.072;7.800;2023-05-24T00:36:56;99636.66;;;13.61;64.28
63554;BME280;49699;48.072;7.800;2023-05-24T00:39:22;99634.88;;;13.61;64.18
63554;BME280;49699;48.072;7.800;2023-05-24T00:41:48;99639.28;;;13.61;64.26
63554;BME280;49699;48.072;7.800;2023-05-24T00:44:13;99639.28;;;13.61;64.27
63554;BME280;49699;48.072;7.800;2023-05-24T00:46:38;99634.06;;;13.61;64.27
63554;BME280;49699;48.072;7.800;2023-05-24T00:49:04;99634.34;;;13.56;64.37
63554;BME280;49699;48.072;7.800;2023-05-24T00:51:30;99637.91;;;13.55;64.33
63554;BME280;49699;48.072;7.800;2023-05-24T00:53:57;99634.56;;;13.53;64.36
63554;BME280;49699;48.072;7.800;2023-05-24T00:56:22;99631.09;;;13.52;64.45
63554;BME280;49699;48.072;7.800;2023-05-24T00:58:48;99632.03;;;13.51;64.40
63554;BME280;49699;48.072;7.800;2023-05-24T01:01:15;99634.75;;;13.50;64.24
63554;BME280;49699;48.072;7.800;2023-05-24T01:03:40;99637.56;;;13.47;64.57
63554;BME280;49699;48.072;7.800;2023-05-24T01:06:06;99631.50;;;13.46;64.50
63554;BME280;49699;48.072;7.800;2023-05-24T01:11:05;99625.41;;;13.46;64.43
63554;BME280;49699;48.072;7.800;2023-05-24T01:13:42;99622.06;;;13.44;64.49
63554;BME280;49699;48.072;7.800;2023-05-24T01:16:15;99628.38;;;13.41;64.65
63554;BME280;49699;48.072;7.800;2023-05-24T01:18:55;99625.84;;;13.40;64.61
63554;BME280;49699;48.072;7.800;2023-05-24T01:21:58;99629.41;;;13.39;64.77
63554;BME280;49699;48.072;7.800;2023-05-24T01:24:36;99628.47;;;13.40;64.73
63554;BME280;49699;48.072;7.800;2023-05-24T01:27:11;99628.66;;;13.37;64.55
63554;BME280;49699;48.072;7.800;2023-05-24T01:29:37;99625.22;;;13.36;64.70
63554;BME280;49699;48.072;7.800;2023-05-24T01:32:02;99627.09;;;13.34;64.60
63554;BME280;49699;48.072;7.800;2023-05-24T01:34:28;99623.53;;;13.35;64.68
63554;BME280;49699;48.072;7.800;2023-05-24T01:36:53;99622.69;;;13.35;64.40
63554;BME280;49699;48.072;7.800;2023-05-24T01:39:19;99623.00;;;13.30;64.56
63554;BME280;49699;48.072;7.800;2023-05-24T01:41:52;99622.25;;;13.28;64.77
63554;BME280;49699;48.072;7.800;2023-05-24T01:44:29;99612.03;;;13.25;64.73
63554;BME280;49699;48.072;7.800;2023-05-24T01:46:58;99612.22;;;13.22;65.03
63554;BME280;49699;48.072;7.800;2023-05-24T01:49:26;99618.38;;;13.21;64.86
63554;BME280;49699;48.072;7.800;2023-05-24T01:51:59;99613.34;;;13.18;65.08
63554;BME280;49699;48.072;7.800;2023-05-24T01:54:27;99619.41;;;13.18;64.95
63554;BME280;49699;48.072;7.800;2023-05-24T01:56:55;99610.72;;;13.18;65.10
63554;BME280;49699;48.072;7.800;2023-05-24T01:59:21;99614.28;;;13.17;65.14
63554;BME280;49699;48.072;7.800;2023-05-24T02:01:47;99610.00;;;13.16;65.10
63554;BME280;49699;48.072;7.800;2023-05-24T02:04:12;99608.38;;;13.13;65.27
63554;BME280;49699;48.072;7.800;2023-05-24T02:06:38;99605.13;;;13.10;65.33
63554;BME280;49699;48.072;7.800;2023-05-24T02:09:06;99620.81;;;13.10;65.35
63554;BME280;49699;48.072;7.800;2023-05-24T02:11:31;99609.59;;;13.08;65.40
63554;BME280;49699;48.072;7.800;2023-05-24T02:13:57;99609.09;;;13.03;65.53
63554;BME280;49699;48.072;7.800;2023-05-24T02:16:22;99604.06;;;13.00;65.68
63554;BME280;49699;48.072;7.800;2023-05-24T02:18:51;99605.00;;;12.99;65.85
63554;BME280;49699;48.072;7.800;2023-05-24T02:21:16;99607.50;;;13.00;65.78
63554;BME280;49699;48.072;7.800;2023-05-24T02:23:41;99605.84;;;12.99;65.78
63554;BME280;49699;48.072;7.800;2023-05-24T02:26:08;99604.25;;;12.97;65.87
63554;BME280;49699;48.072;7.800;2023-05-24T02:28:36;99603.50;;;12.95;65.99
63554;BME280;49699;48.072;7.800;2023-05-24T02:31:01;99595.03;;;12.91;66.01
63554;BME280;49699;48.072;7.800;2023-05-24T02:33:26;99602.25;;;12.88;66.25
63554;BME280;49699;48.072;7.800;2023-05-24T02:35:54;99608.50;;;12.85;66.36
63554;BME280;49699;48.072;7.800;2023-05-24T02:38:19;99596.56;;;12.81;66.46
63554;BME280;49699;48.072;7.800;2023-05-24T02:40:44;99594.44;;;12.73;66.72
63554;BME280;49699;48.072;7.800;2023-05-24T02:43:10;99596.44;;;12.70;66.76
63554;BME280;49699;48.072;7.800;2023-05-24T02:45:35;99594.94;;;12.66;66.88
63554;BME280;49699;48.072;7.800;2023-05-24T02:48:01;99596.06;;;12.62;66.91
63554;BME280;49699;48.072;7.800;2023-05-24T02:50:27;99597.19;;;12.58;67.00
63554;BME280;49699;48.072;7.800;2023-05-24T02:52:52;99585.38;;;12.52;67.19
63554;BME280;49699;48.072;7.800;2023-05-24T02:55:17;99594.13;;;12.51;67.15
63554;BME280;49699;48.072;7.800;2023-05-24T02:57:42;99590.69;;;12.50;67.21
63554;BME280;49699;48.072;7.800;2023-05-24T03:00:08;99582.13;;;12.48;67.22
63554;BME280;49699;48.072;7.800;2023-05-24T03:02:36;99585.75;;;12.46;67.01
63554;BME280;49699;48.072;7.800;2023-05-24T03:05:07;99586.13;;;12.40;67.25
63554;BME280;49699;48.072;7.800;2023-05-24T03:07:33;99586.22;;;12.38;67.30
63554;BME280;49699;48.072;7.800;2023-05-24T03:09:59;99588.00;;;12.38;67.26
63554;BME280;49699;48.072;7.800;2023-05-24T03:12:24;99589.75;;;12.37;67.24
63554;BME280;49699;48.072;7.800;2023-05-24T03:14:50;99585.19;;;12.41;67.10
63554;BME280;49699;48.072;7.800;2023-05-24T03:17:15;99593.13;;;12.39;67.07
63554;BME280;49699;48.072;7.800;2023-05-24T03:19:41;99593.13;;;12.39;67.01
63554;BME280;49699;48.072;7.800;2023-05-24T03:22:06;99607.84;;;12.40;67.03
63554;BME280;49699;48.072;7.800;2023-05-24T03:24:31;99603.47;;;12.41;67.03
63554;BME280;49699;48.072;7.800;2023-05-24T03:26:57;99605.31;;;12.39;66.86
63554;BME280;49699;48.072;7.800;2023-05-24T03:29:23;99600.94;;;12.39;67.10
63554;BME280;49699;48.072;7.800;2023-05-24T03:31:49;99614.75;;;12.41;67.01
63554;BME280;49699;48.072;7.800;2023-05-24T03:34:15;99606.81;;;12.43;66.99
63554;BME280;49699;48.072;7.800;2023-05-24T03:36:40;99612.22;;;12.40;67.11
63554;BME280;49699;48.072;7.800;2023-05-24T03:39:07;99612.41;;;12.37;67.12
63554;BME280;49699;48.072;7.800;2023-05-24T03:41:46;99615.16;;;12.35;67.19
63554;BME280;49699;48.072;7.800;2023-05-24T03:44:11;99618.78;;;12.33;67.26
63554;BME280;49699;48.072;7.800;2023-05-24T03:46:37;99617.09;;;12.32;67.27
63554;BME280;49699;48.072;7.800;2023-05-24T03:49:02;99626.69;;;12.31;67.32
63554;BME280;49699;48.072;7.800;2023-05-24T03:51:28;99623.34;;;12.29;67.43
63554;BME280;49699;48.072;7.800;2023-05-24T03:53:54;99620.81;;;12.28;67.44
63554;BME280;49699;48.072;7.800;2023-05-24T03:56:20;99626.97;;;12.27;67.34
63554;BME280;49699;48.072;7.800;2023-05-24T03:58:46;99628.75;;;12.26;67.67
63554;BME280;49699;48.072;7.800;2023-05-24T04:01:11;99623.63;;;12.25;67.54
63554;BME280;49699;48.072;7.800;2023-05-24T04:03:37;99628.75;;;12.26;67.60
63554;BME280;49699;48.072;7.800;2023-05-24T04:06:03;99621.94;;;12.24;67.61
63554;BME280;49699;48.072;7.800;2023-05-24T04:08:28;99628.84;;;12.25;67.63
63554;BME280;49699;48.072;7.800;2023-05-24T04:10:56;99622.97;;;12.21;67.70
63554;BME280;49699;48.072;7.800;2023-05-24T04:13:21;99629.78;;;12.24;67.82
63554;BME280;49699;48.072;7.800;2023-05-24T04:15:46;99630.88;;;12.20;67.98
63554;BME280;49699;48.072;7.800;2023-05-24T04:18:12;99631.09;;;12.16;67.96
63554;BME280;49699;48.072;7.800;2023-05-24T04:20:37;99640.03;;;12.12;68.39
63554;BME280;49699;48.072;7.800;2023-05-24T04:23:02;99635.66;;;12.13;68.10
63554;BME280;49699;48.072;7.800;2023-05-24T04:25:29;99644.69;;;12.07;68.45
63554;BME280;49699;48.072;7.800;2023-05-24T04:27:54;99640.41;;;12.06;68.66
63554;BME280;49699;48.072;7.800;2023-05-24T04:30:22;99632.56;;;12.06;68.53
63554;BME280;49699;48.072;7.800;2023-05-24T04:32:48;99633.22;;;12.10;68.49
63554;BME280;49699;48.072;7.800;2023-05-24T04:35:13;99629.59;;;12.12;68.52
63554;BME280;49699;48.072;7.800;2023-05-24T04:37:39;99624.94;;;12.18;68.33
63554;BME280;49699;48.072;7.800;2023-05-24T04:40:05;99633.13;;;12.26;68.25
63554;BME280;49699;48.072;7.800;2023-05-24T04:42:32;99626.69;;;12.31;67.93
63554;BME280;49699;48.072;7.800;2023-05-24T04:44:57;99624.53;;;12.38;67.81
63554;BME280;49699;48.072;7.800;2023-05-24T04:47:23;99618.09;;;12.43;67.74
63554;BME280;49699;48.072;7.800;2023-05-24T04:49:48;99619.59;;;12.47;67.43
63554;BME280;49699;48.072;7.800;2023-05-24T04:52:15;99626.31;;;12.51;67.50
63554;BME280;49699;48.072;7.800;2023-05-24T04:54:42;99625.66;;;12.48;67.50
63554;BME280;49699;48.072;7.800;2023-05-24T04:57:07;99615.41;;;12.45;67.91
63554;BME280;49699;48.072;7.800;2023-05-24T04:59:32;99618.94;;;12.44;67.82
63554;BME280;49699;48.072;7.800;2023-05-24T05:01:58;99622.31;;;12.46;67.90
63554;BME280;49699;48.072;7.800;2023-05-24T05:04:23;99622.22;;;12.47;67.96
63554;BME280;49699;48.072;7.800;2023-05-24T05:06:48;99623.03;;;12.48;67.99
63554;BME280;49699;48.072;7.800;2023-05-24T05:09:14;99627.72;;;12.43;67.96
63554;BME280;49699;48.072;7.800;2023-05-24T05:11:39;99629.38;;;12.44;67.91
63554;BME280;49699;48.072;7.800;2023-05-24T05:14:05;99633.50;;;12.48;68.06
63554;BME280;49699;48.072;7.800;2023-05-24T05:16:33;99637.97;;;12.46;68.04
63554;BME280;49699;48.072;7.800;2023-05-24T05:18:59;99638.81;;;12.46;68.29
63554;BME280;49699;48.072;7.800;2023-05-24T05:21:24;99639.56;;;12.48;68.36
63554;BME280;49699;48.072;7.800;2023-05-24T05:23:49;99638.06;;;12.44;68.34
63554;BME280;49699;48.072;7.800;2023-05-24T05:26:15;99636.47;;;12.42;68.52
63554;BME280;49699;48.072;7.800;2023-05-24T05:28:40;99645.69;;;12.47;68.38
63554;BME280;49699;48.072;7.800;2023-05-24T05:31:05;99643.94;;;12.48;68.27
63554;BME280;49699;48.072;7.800;2023-05-24T05:33:31;99639.47;;;12.50;68.25
63554;BME280;49699;48.072;7.800;2023-05-24T05:35:56;99637.78;;;12.49;68.15
63554;BME280;49699;48.072;7.800;2023-05-24T05:38:22;99646.88;;;12.56;68.08
63554;BME280;49699;48.072;7.800;2023-05-24T05:40:47;99634.19;;;12.64;67.73
63554;BME280;49699;48.072;7.800;2023-05-24T05:43:12;99626.94;;;12.69;67.64
63554;BME280;49699;48.072;7.800;2023-05-24T05:45:38;99633.50;;;12.75;67.41
63554;BME280;49699;48.072;7.800;2023-05-24T05:48:03;99633.50;;;12.75;67.35
63554;BME280;49699;48.072;7.800;2023-05-24T05:50:28;99639.56;;;12.75;67.37
63554;BME280;49699;48.072;7.800;2023-05-24T05:52:53;99643.78;;;12.78;67.00
63554;BME280;49699;48.072;7.800;2023-05-24T05:55:19;99642.94;;;12.77;67.07
63554;BME280;49699;48.072;7.800;2023-05-24T05:57:44;99645.06;;;12.85;66.89
63554;BME280;49699;48.072;7.800;2023-05-24T06:00:10;99644.88;;;12.88;66.87
63554;BME280;49699;48.072;7.800;2023-05-24T06:02:39;99646.25;;;12.94;66.62
63554;BME280;49699;48.072;7.800;2023-05-24T06:05:04;99643.34;;;12.98;66.56
63554;BME280;49699;48.072;7.800;2023-05-24T06:07:30;99638.41;;;12.94;66.41
63554;BME280;49699;48.072;7.800;2023-05-24T06:09:55;99645.59;;;12.90;66.56
63554;BME280;49699;48.072;7.800;2023-05-24T06:12:20;99635.28;;;12.89;66.54
63554;BME280;49699;48.072;7.800;2023-05-24T06:14:45;99652.81;;;12.86;66.63
63554;BME280;49699;48.072;7.800;2023-05-24T06:17:14;99655.63;;;12.83;66.27
63554;BME280;49699;48.072;7.800;2023-05-24T06:19:39;99659.34;;;12.79;66.58
63554;BME280;49699;48.072;7.800;2023-05-24T06:22:05;99659.34;;;12.79;66.68
63554;BME280;49699;48.072;7.800;2023-05-24T06:24:30;99664.75;;;12.76;66.55
63554;BME280;49699;48.072;7.800;2023-05-24T06:26:58;99654.31;;;12.76;66.64
63554;BME280;49699;48.072;7.800;2023-05-24T06:29:24;99655.44;;;12.86;66.49
63554;BME280;49699;48.072;7.800;2023-05-24T06:31:49;99656.41;;;12.98;66.14
63554;BME280;49699;48.072;7.800;2023-05-24T06:34:14;99663.88;;;13.04;65.93
63554;BME280;49699;48.072;7.800;2023-05-24T06:36:45;99660.75;;;13.12;65.82
63554;BME280;49699;48.072;7.800;2023-05-24T06:39:12;99660.84;;;13.25;65.30
63554;BME280;49699;48.072;7.800;2023-05-24T06:41:38;99669.56;;;13.38;64.86
63554;BME280;49699;48.072;7.800;2023-05-24T06:44:03;99668.41;;;13.42;64.51
63554;BME280;49699;48.072;7.800;2023-05-24T06:46:28;99672.91;;;13.40;64.52
63554;BME280;49699;48.072;7.800;2023-05-24T06:48:54;99676.03;;;13.45;64.18
63554;BME280;49699;48.072;7.800;2023-05-24T06:51:19;99684.72;;;13.45;64.29
63554;BME280;49699;48.072;7.800;2023-05-24T06:53:45;99679.50;;;13.45;64.05
63554;BME280;49699;48.072;7.800;2023-05-24T06:56:10;99683.16;;;13.43;63.63
63554;BME280;49699;48.072;7.800;2023-05-24T06:58:35;99688.78;;;13.37;63.63
63554;BME280;49699;48.072;7.800;2023-05-24T07:01:01;99689.91;;;13.33;64.08
63554;BME280;49699;48.072;7.800;2023-05-24T07:03:26;99695.69;;;13.38;64.13
63554;BME280;49699;48.072;7.800;2023-05-24T07:05:51;99698.53;;;13.47;63.53
63554;BME280;49699;48.072;7.800;2023-05-24T07:08:17;99689.56;;;13.51;63.66
63554;BME280;49699;48.072;7.800;2023-05-24T07:10:42;99694.59;;;13.54;63.61
63554;BME280;49699;48.072;7.800;2023-05-24T07:13:09;99693.56;;;13.57;63.66
63554;BME280;49699;48.072;7.800;2023-05-24T07:15:38;99705.78;;;13.57;63.18
63554;BME280;49699;48.072;7.800;2023-05-24T07:18:04;99706.69;;;13.43;63.10
63554;BME280;49699;48.072;7.800;2023-05-24T07:20:29;99705.78;;;13.30;63.51
63554;BME280;49699;48.072;7.800;2023-05-24T07:22:54;99701.91;;;13.23;63.70
63554;BME280;49699;48.072;7.800;2023-05-24T07:25:20;99697.22;;;13.28;63.85
63554;BME280;49699;48.072;7.800;2023-05-24T07:27:45;99710.00;;;13.32;63.76
63554;BME280;49699;48.072;7.800;2023-05-24T07:30:10;99711.13;;;13.28;63.39
63554;BME280;49699;48.072;7.800;2023-05-24T07:32:36;99707.44;;;13.18;63.36
63554;BME280;49699;48.072;7.800;2023-05-24T07:35:01;99714.03;;;13.09;63.28
63554;BME280;49699;48.072;7.800;2023-05-24T07:37:27;99699.97;;;12.98;63.67
63554;BME280;49699;48.072;7.800;2023-05-24T07:39:53;99708.28;;;12.90;63.97
63554;BME280;49699;48.072;7.800;2023-05-24T07:42:18;99712.50;;;12.93;64.33
63554;BME280;49699;48.072;7.800;2023-05-24T07:44:44;99715.38;;;13.02;64.30
63554;BME280;49699;48.072;7.800;2023-05-24T07:47:10;99707.69;;;13.13;64.17
63554;BME280;49699;48.072;7.800;2023-05-24T07:49:35;99712.69;;;13.31;63.75
63554;BME280;49699;48.072;7.800;2023-05-24T07:52:01;99714.84;;;13.38;63.51
63554;BME280;49699;48.072;7.800;2023-05-24T07:54:28;99714.41;;;13.44;63.01
63554;BME280;49699;48.072;7.800;2023-05-24T07:56:53;99714.03;;;13.50;62.92
63554;BME280;49699;48.072;7.800;2023-05-24T07:59:18;99716.53;;;13.52;62.78
63554;BME280;49699;48.072;7.800;2023-05-24T08:01:44;99713.34;;;13.61;62.75
63554;BME280;49699;48.072;7.800;2023-05-24T08:04:09;99713.75;;;13.68;62.62
63554;BME280;49699;48.072;7.800;2023-05-24T08:06:35;99708.13;;;13.74;62.61
63554;BME280;49699;48.072;7.800;2023-05-24T08:09:00;99722.78;;;13.76;62.26
63554;BME280;49699;48.072;7.800;2023-05-24T08:11:26;99712.53;;;13.73;62.33
63554;BME280;49699;48.072;7.800;2023-05-24T08:13:51;99711.16;;;13.80;62.25
63554;BME280;49699;48.072;7.800;2023-05-24T08:16:17;99713.38;;;13.86;62.14
63554;BME280;49699;48.072;7.800;2023-05-24T08:18:42;99723.97;;;13.98;61.98
63554;BME280;49699;48.072;7.800;2023-05-24T08:21:07;99726.28;;;14.02;61.83
63554;BME280;49699;48.072;7.800;2023-05-24T08:23:33;99718.72;;;13.98;61.82
63554;BME280;49699;48.072;7.800;2023-05-24T08:25:58;99716.94;;;13.98;61.78
63554;BME280;49699;48.072;7.800;2023-05-24T08:28:24;99719.47;;;14.00;61.74
63554;BME280;49699;48.072;7.800;2023-05-24T08:30:49;99725.22;;;13.92;62.01
63554;BME280;49699;48.072;7.800;2023-05-24T08:33:15;99724.09;;;13.96;62.05
63554;BME280;49699;48.072;7.800;2023-05-24T08:35:40;99734.22;;;14.01;62.00
63554;BME280;49699;48.072;7.800;2023-05-24T08:38:05;99724.50;;;14.03;61.82
63554;BME280;49699;48.072;7.800;2023-05-24T08:40:31;99736.44;;;14.07;61.37
63554;BME280;49699;48.072;7.800;2023-05-24T08:42:58;99725.88;;;14.08;61.43
63554;BME280;49699;48.072;7.800;2023-05-24T08:45:23;99725.88;;;14.08;61.33
63554;BME280;49699;48.072;7.800;2023-05-24T08:47:50;99727.84;;;14.17;61.38
63554;BME280;49699;48.072;7.800;2023-05-24T08:50:15;99725.47;;;14.27;61.29
63554;BME280;49699;48.072;7.800;2023-05-24T08:52:42;99723.88;;;14.37;61.05
63554;BME280;49699;48.072;7.800;2023-05-24T08:55:08;99734.63;;;14.47;61.01
63554;BME280;49699;48.072;7.800;2023-05-24T08:57:33;99728.63;;;14.45;60.53
63554;BME280;49699;48.072;7.800;2023-05-24T09:00:03;99734.19;;;14.40;60.51
63554;BME280;49699;48.072;7.800;2023-05-24T09:02:29;99732.28;;;14.30;60.23
63554;BME280;49699;48.072;7.800;2023-05-24T09:04:55;99733.94;;;14.18;59.97
63554;BME280;49699;48.072;7.800;2023-05-24T09:07:21;99733.72;;;14.08;60.21
63554;BME280;49699;48.072;7.800;2023-05-24T09:09:52;99738.94;;;13.96;60.76
63554;BME280;49699;48.072;7.800;2023-05-24T09:12:21;99741.03;;;13.90;61.02
63554;BME280;49699;48.072;7.800;2023-05-24T09:14:46;99740.06;;;13.79;61.25
63554;BME280;49699;48.072;7.800;2023-05-24T09:17:12;99734.03;;;13.64;61.84
63554;BME280;49699;48.072;7.800;2023-05-24T09:19:44;99741.97;;;13.63;62.22
63554;BME280;49699;48.072;7.800;2023-05-24T09:22:13;99742.91;;;13.62;62.08
63554;BME280;49699;48.072;7.800;2023-05-24T09:24:40;99735.59;;;13.54;62.30
63554;BME280;49699;48.072;7.800;2023-05-24T09:27:05;99735.69;;;13.52;62.46
63554;BME280;49699;48.072;7.800;2023-05-24T09:29:34;99744.81;;;13.60;62.59
63554;BME280;49699;48.072;7.800;2023-05-24T09:31:59;99744.00;;;13.72;62.42
63554;BME280;49699;48.072;7.800;2023-05-24T09:34:24;99737.88;;;13.85;62.03
63554;BME280;49699;48.072;7.800;2023-05-24T09:36:52;99746.69;;;13.97;61.77
63554;BME280;49699;48.072;7.800;2023-05-24T09:39:17;99739.06;;;14.07;61.37
63554;BME280;49699;48.072;7.800;2023-05-24T09:41:45;99747.75;;;14.07;61.37
63554;BME280;49699;48.072;7.800;2023-05-24T09:44:22;99739.69;;;14.10;61.74
63554;BME280;49699;48.072;7.800;2023-05-24T09:46:48;99756.03;;;14.14;61.50
63554;BME280;49699;48.072;7.800;2023-05-24T09:49:13;99752.78;;;14.10;61.43
63554;BME280;49699;48.072;7.800;2023-05-24T09:51:38;99751.31;;;14.06;61.54
63554;BME280;49699;48.072;7.800;2023-05-24T09:54:04;99734.88;;;14.04;61.58
63554;BME280;49699;48.072;7.800;2023-05-24T09:56:30;99760.53;;;14.12;61.48
63554;BME280;49699;48.072;7.800;2023-05-24T09:58:56;99754.47;;;14.24;61.22
63554;BME280;49699;48.072;7.800;2023-05-24T10:01:22;99757.34;;;14.46;60.63
63554;BME280;49699;48.072;7.800;2023-05-24T10:03:52;99756.16;;;14.76;60.35
63554;BME280;49699;48.072;7.800;2023-05-24T10:06:18;99758.13;;;14.98;60.03
63554;BME280;49699;48.072;7.800;2023-05-24T10:08:44;99752.41;;;15.16;59.58
63554;BME280;49699;48.072;7.800;2023-05-24T10:11:12;99756.56;;;15.32;59.09
63554;BME280;49699;48.072;7.800;2023-05-24T10:13:37;99752.78;;;15.36;59.03
63554;BME280;49699;48.072;7.800;2023-05-24T10:16:03;99755.38;;;15.36;58.94
63554;BME280;49699;48.072;7.800;2023-05-24T10:18:28;99757.06;;;15.37;58.98
63554;BME280;49699;48.072;7.800;2023-05-24T10:20:54;99755.28;;;15.37;59.10
63554;BME280;49699;48.072;7.800;2023-05-24T10:23:21;99752.56;;;15.39;58.88
63554;BME280;49699;48.072;7.800;2023-05-24T10:25:53;99757.06;;;15.37;58.88
63554;BME280;49699;48.072;7.800;2023-05-24T10:28:21;99755.75;;;15.42;58.72
63554;BME280;49699;48.072;7.800;2023-05-24T10:31:04;99757.22;;;15.46;58.51
63554;BME280;49699;48.072;7.800;2023-05-24T10:33:33;99750.78;;;15.63;57.73
63554;BME280;49699;48.072;7.800;2023-05-24T10:36:00;99743.34;;;15.81;57.28
63554;BME280;49699;48.072;7.800;2023-05-24T10:38:26;99746.00;;;15.92;56.85
63554;BME280;49699;48.072;7.800;2023-05-24T10:40:53;99745.31;;;16.01;56.55
63554;BME280;49699;48.072;7.800;2023-05-24T10:43:19;99746.78;;;16.16;56.52
63554;BME280;49699;48.072;7.800;2023-05-24T10:45:48;99741.69;;;16.37;56.04
63554;BME280;49699;48.072;7.800;2023-05-24T10:50:40;99744.47;;;16.69;55.13
63554;BME280;49699;48.072;7.800;2023-05-24T10:53:18;99746.63;;;16.86;54.79
63554;BME280;49699;48.072;7.800;2023-05-24T10:55:50;99742.69;;;16.92;54.42
63554;BME280;49699;48.072;7.800;2023-05-24T10:58:17;99750.94;;;16.87;54.50
63554;BME280;49699;48.072;7.800;2023-05-24T11:00:42;99738.28;;;16.81;54.33
63554;BME280;49699;48.072;7.800;2023-05-24T11:03:08;99755.00;;;16.69;54.56
63554;BME280;49699;48.072;7.800;2023-05-24T11:08:00;99745.41;;;16.57;55.01
63554;BME280;49699;48.072;7.800;2023-05-24T11:10:30;99749.47;;;16.61;55.16
63554;BME280;49699;48.072;7.800;2023-05-24T11:12:56;99746.38;;;16.56;55.28
63554;BME280;49699;48.072;7.800;2023-05-24T11:15:23;99745.03;;;16.50;55.43
63554;BME280;49699;48.072;7.800;2023-05-24T11:20:33;99751.00;;;16.52;55.26
63554;BME280;49699;48.072;7.800;2023-05-24T11:23:01;99748.75;;;16.59;55.14
63554;BME280;49699;48.072;7.800;2023-05-24T11:25:27;99747.22;;;16.67;55.14
63554;BME280;49699;48.072;7.800;2023-05-24T11:27:53;99739.59;;;16.76;55.01
63554;BME280;49699;48.072;7.800;2023-05-24T11:30:19;99742.47;;;16.84;54.86
63554;BME280;49699;48.072;7.800;2023-05-24T11:32:46;99739.94;;;16.93;54.73
63554;BME280;49699;48.072;7.800;2023-05-24T11:35:12;99733.38;;;16.99;54.60
63554;BME280;49699;48.072;7.800;2023-05-24T11:37:41;99741.22;;;17.10;54.67
63554;BME280;49699;48.072;7.800;2023-05-24T11:40:09;99738.00;;;17.18;54.04
63554;BME280;49699;48.072;7.800;2023-05-24T11:42:35;99729.63;;;17.13;54.17
63554;BME280;49699;48.072;7.800;2023-05-24T11:45:03;99726.13;;;17.23;54.21
63554;BME280;49699;48.072;7.800;2023-05-24T11:47:34;99720.22;;;17.42;53.73
63554;BME280;49699;48.072;7.800;2023-05-24T11:49:59;99721.00;;;17.65;53.31
63554;BME280;49699;48.072;7.800;2023-05-24T11:52:25;99716.59;;;17.86;52.93
63554;BME280;49699;48.072;7.800;2023-05-24T11:54:50;99715.38;;;18.11;52.47
63554;BME280;49699;48.072;7.800;2023-05-24T11:57:16;99712.31;;;18.27;52.12
63554;BME280;49699;48.072;7.800;2023-05-24T11:59:43;99711.13;;;18.41;51.46
63554;BME280;49699;48.072;7.800;2023-05-24T12:02:08;99708.13;;;18.55;51.05
63554;BME280;49699;48.072;7.800;2023-05-24T12:04:34;99703.09;;;18.72;50.69
63554;BME280;49699;48.072;7.800;2023-05-24T12:06:59;99708.22;;;18.74;49.74
63554;BME280;49699;48.072;7.800;2023-05-24T12:09:25;99699.19;;;18.67;49.62
63554;BME280;49699;48.072;7.800;2023-05-24T12:11:51;99698.22;;;18.68;50.03
63554;BME280;49699;48.072;7.800;2023-05-24T12:14:17;99692.47;;;19.03;49.31
63554;BME280;49699;48.072;7.800;2023-05-24T12:16:44;99689.75;;;19.14;47.85
63554;BME280;49699;48.072;7.800;2023-05-24T12:19:19;99690.69;;;19.03;48.27
63554;BME280;49699;48.072;7.800;2023-05-24T12:21:45;99699.44;;;19.04;48.07
63554;BME280;49699;48.072;7.800;2023-05-24T12:24:11;99683.72;;;19.02;48.01
63554;BME280;49699;48.072;7.800;2023-05-24T12:26:45;99678.50;;;19.12;47.02
63554;BME280;49699;48.072;7.800;2023-05-24T12:29:11;99683.19;;;19.08;47.25
63554;BME280;49699;48.072;7.800;2023-05-24T12:31:40;99677.09;;;19.08;47.27
63554;BME280;49699;48.072;7.800;2023-05-24T12:34:06;99670.31;;;19.15;47.43
63554;BME280;49699;48.072;7.800;2023-05-24T12:36:33;99665.19;;;19.33;47.19
63554;BME280;49699;48.072;7.800;2023-05-24T12:38:59;99668.38;;;19.46;47.18
63554;BME280;49699;48.072;7.800;2023-05-24T12:41:29;99669.22;;;19.47;47.20
63554;BME280;49699;48.072;7.800;2023-05-24T12:43:54;99669.63;;;19.32;47.17
63554;BME280;49699;48.072;7.800;2023-05-24T12:46:20;99654.31;;;19.07;47.62
63554;BME280;49699;48.072;7.800;2023-05-24T12:48:46;99666.19;;;18.82;47.83
63554;BME280;49699;48.072;7.800;2023-05-24T12:51:11;99670.50;;;18.73;48.36
63554;BME280;49699;48.072;7.800;2023-05-24T12:53:36;99663.28;;;18.85;48.25
63554;BME280;49699;48.072;7.800;2023-05-24T12:56:02;99661.41;;;19.16;47.96
63554;BME280;49699;48.072;7.800;2023-05-24T12:58:27;99639.94;;;19.50;47.29
63554;BME280;49699;48.072;7.800;2023-05-24T13:00:52;99653.09;;;19.79;46.74
63554;BME280;49699;48.072;7.800;2023-05-24T13:03:18;99654.84;;;19.97;45.72
63554;BME280;49699;48.072;7.800;2023-05-24T13:05:43;99643.88;;;20.02;45.67